首页
METAR-TAF:

METAR-TAF

机场 :

Terrace, 不列颠哥伦比亚, 加拿大

纬度: 54-28N, 经度: 128-35W, 海拔: 217米

当前天气观测

该预报发布于18分钟前的04:00 UTC
风速2节,风向西转西南
温度 5°C
湿度 100%
气压 998 hPa
能見度: 1.6公里
散云层高于200英尺
阴天层高于500英尺
小雨, 轻雾

METAR: CYXT 220400Z 25002KT 1SM -RA BR SCT002 OVC005 05/05 A2948 RMK SF3SF5 SLP992

时间: 21:18 (04:18 UTC)

预报

该预报发布于3小时和40分钟前的00:38 UTC
预报有效从22日的 01点(UTC)到 22日的 13点(UTC)
风速8节,风向
能見度: 9.7公里
散云层高于400英尺
阴天层高于1500英尺
小雨, 轻雾
短暂存在
从 22日的 01点(UTC)到 22日的 08点(UTC)
能見度: 3.2公里
阴天层高于400英尺
雨, 轻雾
成为
从 22日的 05点(UTC)到 22日的 07点(UTC)
风速15节,风向
从 22日的 0800点(UTC)
风速20节,风向
能見度: 10公里
多云层高于3000英尺
短暂存在
从 22日的 08点(UTC)到 22日的 13点(UTC)
能見度: 10公里
小阵雨

TAF: CYXT 220038Z 2201/2213 01008KT 6SM -RA BR SCT004 OVC015 TEMPO 2201/2208 2SM RA BR OVC004 BECMG 2205/2207 18015KT FM220800 18020KT P6SM BKN030 TEMPO 2208/2213 P6SM -SHRA RMK NXT FCST BY 220700Z

超过4000个机场的气象观测和天气预报(METAR&TAF报告)。

可查询的气象台以黄色和红色小点在地图上表示。

将鼠标移到小点上方,可查看气象台名称。

然后点击查看天气观测和预报。

如需切换地图:点击带黑十字的绿色按钮放大地图;点击带横线的绿色按钮缩小地图;或者点击绿色箭头查看邻近地区的地图。


METAR-TAF: